Terminal Aerodrome Forecast
Issued by NWS Shreveport, LA

Current Version | Previous Version | Text Only | Print | Product List | Glossary On
Versions: 1 2 3 4 5 6 7 8 9 10 11 12 13 14 15 16 17 18
000
FTUS44 KSHV 300539
TAFLFK
TAF
KLFK 300539Z 3006/3106 VRB03KT P6SM SCT050 BKN150 BKN250
      TEMPO 3008/3010 5SM BR
     FM301000 05003KT 4SM BR SCT045 BKN150 BKN250
      TEMPO 3010/3013 3SM BR
     FM301400 06006KT P6SM SCT040 SCT150 BKN250
     FM301800 07007KT P6SM BKN045 BKN250
     FM310000 04004KT P6SM BKN100=

USA.gov is the U.S. government's official web portal to all federal, state and local government web resources and services.